createdAt,value
2017-08-07T00:01:12.212Z,16.06
2017-08-07T00:03:39.674Z,15.88
2017-08-07T00:06:07.165Z,15.86
2017-08-07T00:08:34.649Z,15.89
2017-08-07T00:11:02.114Z,15.94
2017-08-07T00:13:29.573Z,15.98
2017-08-07T00:15:57.052Z,16.08
2017-08-07T00:18:24.510Z,16.06
2017-08-07T00:20:52.201Z,16.01
2017-08-07T00:23:19.666Z,16.06
2017-08-07T00:25:47.420Z,16.04
2017-08-07T00:28:14.874Z,16.09
2017-08-07T00:30:42.331Z,16.19
2017-08-07T00:33:09.808Z,16.14
2017-08-07T00:35:37.261Z,16.12
2017-08-07T00:38:05.030Z,16.08
2017-08-07T00:40:32.670Z,16.09
2017-08-07T00:43:00.129Z,16.05
2017-08-07T00:45:27.608Z,16.07
2017-08-07T00:47:55.067Z,16.07
2017-08-07T00:50:22.937Z,16.06
2017-08-07T00:52:50.393Z,16.08
2017-08-07T00:55:17.849Z,16.11
2017-08-07T00:57:45.334Z,16.11
2017-08-07T01:00:12.810Z,16.07
2017-08-07T01:02:40.295Z,16.06
2017-08-07T01:05:07.757Z,16.04
2017-08-07T01:07:35.237Z,16.02
2017-08-07T01:10:02.694Z,16.12
2017-08-07T01:12:30.169Z,16.11
2017-08-07T01:14:57.625Z,16.08
2017-08-07T01:17:25.310Z,16.11
2017-08-07T01:19:52.784Z,16.09
2017-08-07T01:22:20.246Z,16.10
2017-08-07T01:24:47.728Z,16.16
2017-08-07T01:27:15.189Z,16.15
2017-08-07T01:29:42.675Z,16.16
2017-08-07T01:32:10.126Z,16.18
2017-08-07T01:34:37.612Z,16.20
2017-08-07T01:37:05.078Z,16.24
2017-08-07T01:39:32.533Z,16.23
2017-08-07T01:42:00.029Z,16.17
2017-08-07T01:44:27.491Z,16.15
2017-08-07T01:46:54.953Z,16.24
2017-08-07T01:49:22.587Z,16.27
2017-08-07T01:51:50.046Z,16.16
2017-08-07T01:54:17.509Z,16.08
2017-08-07T01:56:45.002Z,16.05
2017-08-07T01:59:12.474Z,16.00
2017-08-07T02:01:39.929Z,16.00
2017-08-07T02:04:07.518Z,15.98
2017-08-07T02:06:34.977Z,15.94
2017-08-07T02:09:02.434Z,15.97
2017-08-07T02:11:29.916Z,15.98
2017-08-07T02:13:57.393Z,15.97
2017-08-07T02:16:24.874Z,15.92
2017-08-07T02:18:52.328Z,15.84
2017-08-07T02:21:19.808Z,15.87
2017-08-07T02:23:47.269Z,15.91
2017-08-07T02:26:14.749Z,15.93
2017-08-07T02:28:42.242Z,15.94
2017-08-07T02:31:09.699Z,15.93
2017-08-07T02:33:37.172Z,15.95
2017-08-07T02:36:04.654Z,15.89
2017-08-07T02:38:32.150Z,15.93
2017-08-07T02:40:59.784Z,15.87
2017-08-07T02:43:27.246Z,15.87
2017-08-07T02:45:54.705Z,15.88
2017-08-07T02:48:22.184Z,15.86
2017-08-07T02:50:49.657Z,15.91
2017-08-07T02:53:17.134Z,15.81
2017-08-07T02:55:44.605Z,15.87
2017-08-07T02:58:12.091Z,15.76
2017-08-07T03:00:39.576Z,15.81
2017-08-07T03:03:07.038Z,15.75
2017-08-07T03:05:34.525Z,15.73
2017-08-07T03:08:01.981Z,15.74
2017-08-07T03:10:29.486Z,15.67
2017-08-07T03:12:56.962Z,15.65
2017-08-07T03:15:24.436Z,15.63
2017-08-07T03:17:51.896Z,15.65
2017-08-07T03:20:19.385Z,15.73
2017-08-07T03:22:46.846Z,15.76
2017-08-07T03:25:14.305Z,15.82
2017-08-07T03:27:41.786Z,15.78
2017-08-07T03:30:09.250Z,15.66
2017-08-07T03:32:36.716Z,15.72
2017-08-07T03:35:04.201Z,17.23
2017-08-07T03:37:31.684Z,17.21
2017-08-07T03:39:59.167Z,17.55
2017-08-07T03:42:26.644Z,17.85
2017-08-07T03:44:54.094Z,17.82
2017-08-07T03:47:21.570Z,16.92
2017-08-07T03:49:49.063Z,17.73
2017-08-07T03:52:16.520Z,17.43
2017-08-07T03:54:43.974Z,17.04
2017-08-07T03:57:11.446Z,16.59
2017-08-07T03:59:38.910Z,16.33
2017-08-07T04:02:06.393Z,16.44
2017-08-07T04:04:33.851Z,16.36
2017-08-07T04:07:01.301Z,15.97
2017-08-07T04:09:28.787Z,15.95
2017-08-07T04:11:56.588Z,15.96
2017-08-07T04:14:24.043Z,15.95
2017-08-07T04:16:51.543Z,16.38
2017-08-07T04:19:19.038Z,16.74
2017-08-07T04:21:46.962Z,16.45
2017-08-07T04:24:14.412Z,16.88
2017-08-07T04:26:41.869Z,16.72
2017-08-07T04:29:09.345Z,16.88
2017-08-07T04:31:36.821Z,16.84
2017-08-07T04:34:04.560Z,16.68
2017-08-07T04:36:32.012Z,16.69
2017-08-07T04:38:59.463Z,16.44
2017-08-07T04:41:26.941Z,16.32
2017-08-07T04:43:54.400Z,16.57
2017-08-07T04:46:21.878Z,16.79
2017-08-07T04:48:49.341Z,17.20
2017-08-07T04:51:16.792Z,17.22
2017-08-07T04:53:44.410Z,17.11
2017-08-07T04:56:11.864Z,17.17
2017-08-07T04:58:39.312Z,17.07
2017-08-07T05:01:07.229Z,17.02
2017-08-07T05:03:34.685Z,16.92
2017-08-07T05:06:02.141Z,17.13
2017-08-07T05:08:29.614Z,17.19
2017-08-07T05:10:57.064Z,17.09
2017-08-07T05:13:24.841Z,17.02
2017-08-07T05:15:52.293Z,17.08
2017-08-07T05:18:19.749Z,17.10
2017-08-07T05:20:47.223Z,17.06
2017-08-07T05:23:14.685Z,17.10
2017-08-07T05:25:42.451Z,17.11
2017-08-07T05:28:09.912Z,17.14
2017-08-07T05:30:37.388Z,17.35
2017-08-07T05:33:05.325Z,17.37
2017-08-07T05:35:32.779Z,17.44
2017-08-07T05:38:00.264Z,17.30
2017-08-07T05:40:27.724Z,17.22
2017-08-07T05:42:55.204Z,17.27
2017-08-07T05:45:22.654Z,17.21
2017-08-07T05:47:50.130Z,17.14
2017-08-07T05:50:17.591Z,17.01
2017-08-07T05:52:45.081Z,16.90
2017-08-07T05:55:12.538Z,16.80
2017-08-07T05:57:39.990Z,17.07
2017-08-07T06:00:07.477Z,17.09
2017-08-07T06:02:34.928Z,16.87
2017-08-07T06:05:02.409Z,16.81
2017-08-07T06:07:29.860Z,17.06
2017-08-07T06:09:57.317Z,17.01
2017-08-07T06:12:24.789Z,17.05
2017-08-07T06:14:52.237Z,17.07
2017-08-07T06:17:19.705Z,17.66
2017-08-07T06:19:47.181Z,17.33
2017-08-07T06:22:14.661Z,17.23
2017-08-07T06:24:42.141Z,17.66
2017-08-07T06:27:09.618Z,17.46
2017-08-07T06:29:37.101Z,17.18
2017-08-07T06:32:04.551Z,17.52
2017-08-07T06:34:32.254Z,17.30
2017-08-07T06:36:59.707Z,17.29
2017-08-07T06:39:27.173Z,17.50
2017-08-07T06:41:54.653Z,17.56
2017-08-07T06:44:22.137Z,17.45
2017-08-07T06:46:49.627Z,17.50
2017-08-07T06:49:17.077Z,17.44
2017-08-07T06:51:44.569Z,17.65
2017-08-07T06:54:12.030Z,17.88
2017-08-07T06:56:39.519Z,18.11
2017-08-07T06:59:06.981Z,18.01
2017-08-07T07:01:34.445Z,18.30
2017-08-07T07:04:02.379Z,18.31
2017-08-07T07:06:29.844Z,18.08
2017-08-07T07:08:57.298Z,18.39
2017-08-07T07:11:24.774Z,18.79
2017-08-07T07:13:52.258Z,18.80
2017-08-07T07:16:19.707Z,18.98
2017-08-07T07:18:47.177Z,19.05
2017-08-07T07:21:14.629Z,19.26
2017-08-07T07:23:42.276Z,19.53
2017-08-07T07:26:09.738Z,19.73
2017-08-07T07:28:37.186Z,19.61
2017-08-07T07:31:04.653Z,19.84
2017-08-07T07:33:32.111Z,19.22
2017-08-07T07:35:59.593Z,19.27
2017-08-07T07:38:27.045Z,19.69
2017-08-07T07:40:54.493Z,19.80
2017-08-07T07:43:21.965Z,19.82
2017-08-07T07:45:49.412Z,19.86
2017-08-07T07:48:16.898Z,19.80
2017-08-07T07:50:44.353Z,19.87
2017-08-07T07:53:11.840Z,19.81
2017-08-07T07:55:39.294Z,19.89
2017-08-07T07:58:06.743Z,20.00
2017-08-07T08:00:34.359Z,19.78
2017-08-07T08:03:01.847Z,20.02
2017-08-07T08:05:29.457Z,20.06
2017-08-07T08:07:56.909Z,19.90
2017-08-07T08:10:24.368Z,19.92
2017-08-07T08:12:51.828Z,20.05
2017-08-07T08:15:19.282Z,20.17
2017-08-07T08:17:46.748Z,20.37
2017-08-07T08:20:14.233Z,20.32
2017-08-07T08:22:41.712Z,20.43
2017-08-07T08:25:09.154Z,20.63
2017-08-07T08:27:36.617Z,20.46
2017-08-07T08:30:04.082Z,19.94
2017-08-07T08:32:31.532Z,20.23
2017-08-07T08:34:59.021Z,20.52
2017-08-07T08:37:26.526Z,20.74
2017-08-07T08:39:53.979Z,20.83
2017-08-07T08:42:21.450Z,20.79
2017-08-07T08:44:48.900Z,20.96
2017-08-07T08:47:16.375Z,20.87
2017-08-07T08:49:43.844Z,20.84
2017-08-07T08:52:12.244Z,20.95
2017-08-07T08:54:39.695Z,20.96
2017-08-07T08:57:07.148Z,21.07
2017-08-07T08:59:34.593Z,21.16
2017-08-07T09:02:02.075Z,21.21
2017-08-07T09:04:29.548Z,20.73
2017-08-07T09:06:57.013Z,20.96
2017-08-07T09:09:24.450Z,21.41
2017-08-07T09:11:51.917Z,21.81
2017-08-07T09:14:19.369Z,21.71
2017-08-07T09:16:46.840Z,21.70
2017-08-07T09:19:14.296Z,21.40
2017-08-07T09:21:41.772Z,21.45
2017-08-07T09:24:09.217Z,21.41
2017-08-07T09:26:36.673Z,21.10
2017-08-07T09:29:04.134Z,21.28
2017-08-07T09:31:31.601Z,21.90
2017-08-07T09:33:59.077Z,22.41
2017-08-07T09:36:26.545Z,22.54
2017-08-07T09:38:53.993Z,22.36
2017-08-07T09:41:21.462Z,22.52
2017-08-07T09:43:49.087Z,22.72
2017-08-07T09:46:16.552Z,22.67
2017-08-07T09:48:44.020Z,22.55
2017-08-07T09:51:11.480Z,22.58
2017-08-07T09:53:38.921Z,22.10
2017-08-07T09:56:06.396Z,22.40
2017-08-07T09:58:33.848Z,22.81
2017-08-07T10:01:01.320Z,23.07
2017-08-07T10:03:28.786Z,23.20
2017-08-07T10:05:56.262Z,22.88
2017-08-07T10:08:23.729Z,23.52
2017-08-07T10:10:51.180Z,23.86
2017-08-07T10:13:18.663Z,23.41
2017-08-07T10:15:46.137Z,23.56
2017-08-07T10:18:13.590Z,23.69
2017-08-07T10:20:41.069Z,24.07
2017-08-07T10:23:08.512Z,24.18
2017-08-07T10:25:35.988Z,23.60
2017-08-07T10:28:03.452Z,23.91
2017-08-07T10:30:30.894Z,23.71
2017-08-07T10:32:58.373Z,23.31
2017-08-07T10:35:25.828Z,23.53
2017-08-07T10:37:53.284Z,23.89
2017-08-07T10:40:20.753Z,24.23
2017-08-07T10:42:48.225Z,24.34
2017-08-07T10:45:15.668Z,23.89
2017-08-07T10:47:43.373Z,24.31
2017-08-07T10:50:10.825Z,23.74
2017-08-07T10:52:38.282Z,24.18
2017-08-07T10:55:06.070Z,23.52
2017-08-07T10:57:33.514Z,23.82
2017-08-07T11:00:00.958Z,24.32
2017-08-07T11:02:28.429Z,23.80
2017-08-07T11:04:55.881Z,23.93
2017-08-07T11:07:23.490Z,23.34
2017-08-07T11:09:50.941Z,23.67
2017-08-07T11:12:18.385Z,24.24
2017-08-07T11:14:45.845Z,23.95
2017-08-07T11:17:13.290Z,25.07
2017-08-07T11:19:40.748Z,25.33
2017-08-07T11:22:08.211Z,24.37
2017-08-07T11:24:35.656Z,25.46
2017-08-07T11:27:03.142Z,24.97
2017-08-07T11:29:30.601Z,25.06
2017-08-07T11:31:58.060Z,25.16
2017-08-07T11:34:25.532Z,25.93
2017-08-07T11:36:52.994Z,25.43
2017-08-07T11:39:20.646Z,24.73
2017-08-07T11:41:48.099Z,25.77
2017-08-07T11:44:15.540Z,25.36
2017-08-07T11:46:43.005Z,25.56
2017-08-07T11:49:10.452Z,25.60
2017-08-07T11:51:37.925Z,25.57
2017-08-07T11:54:05.372Z,26.99
2017-08-07T11:56:32.833Z,26.33
2017-08-07T11:59:00.636Z,27.98
2017-08-07T12:01:28.081Z,27.51
2017-08-07T12:03:55.535Z,26.20
2017-08-07T12:06:23.002Z,26.07
2017-08-07T12:08:50.443Z,26.87
2017-08-07T12:11:18.253Z,27.00
2017-08-07T12:13:45.702Z,28.35
2017-08-07T12:16:13.158Z,27.07
2017-08-07T12:18:40.624Z,26.95
2017-08-07T12:21:08.068Z,26.68
2017-08-07T12:23:35.553Z,27.32
2017-08-07T12:26:02.998Z,27.86
2017-08-07T12:28:30.446Z,28.12
2017-08-07T12:30:57.923Z,26.46
2017-08-07T12:33:25.383Z,27.29
2017-08-07T12:35:52.831Z,28.25
2017-08-07T12:38:20.300Z,27.42
2017-08-07T12:40:47.751Z,27.90
2017-08-07T12:43:15.233Z,29.12
2017-08-07T12:45:42.677Z,28.38
2017-08-07T12:48:10.140Z,27.83
2017-08-07T12:50:37.598Z,29.04
2017-08-07T12:53:05.046Z,29.91
2017-08-07T12:55:32.522Z,28.46
2017-08-07T12:57:59.962Z,27.88
2017-08-07T13:00:27.761Z,29.42
2017-08-07T13:02:55.209Z,27.91
2017-08-07T13:05:22.660Z,27.26
2017-08-07T13:07:50.147Z,26.94
2017-08-07T13:10:17.606Z,27.29
2017-08-07T13:12:45.057Z,27.79
2017-08-07T13:15:12.524Z,27.94
2017-08-07T13:17:40.000Z,29.11
2017-08-07T13:20:07.453Z,29.53
2017-08-07T13:22:34.921Z,29.87
2017-08-07T13:25:02.408Z,30.27
2017-08-07T13:27:29.857Z,30.68
2017-08-07T13:29:57.301Z,29.13
2017-08-07T13:32:24.772Z,29.13
2017-08-07T13:34:52.247Z,29.16
2017-08-07T13:37:19.702Z,29.69
2017-08-07T13:39:47.431Z,27.72
2017-08-07T13:42:14.885Z,27.91
2017-08-07T13:44:42.330Z,28.99
2017-08-07T13:47:10.112Z,27.71
2017-08-07T13:49:37.553Z,27.89
2017-08-07T13:52:04.995Z,28.04
2017-08-07T13:54:32.472Z,29.12
2017-08-07T13:56:59.922Z,28.26
2017-08-07T13:59:27.628Z,28.80
2017-08-07T14:01:55.077Z,28.76
2017-08-07T14:04:22.521Z,29.99
2017-08-07T14:06:49.998Z,28.09
2017-08-07T14:09:17.445Z,29.61
2017-08-07T14:11:44.894Z,30.04
2017-08-07T14:14:12.377Z,30.27
2017-08-07T14:16:39.826Z,30.97
2017-08-07T14:19:07.305Z,29.28
2017-08-07T14:21:34.749Z,29.83
2017-08-07T14:24:02.217Z,29.65
2017-08-07T14:26:29.996Z,30.20
2017-08-07T14:28:57.482Z,28.82
2017-08-07T14:31:24.953Z,31.17
2017-08-07T14:33:52.461Z,30.59
2017-08-07T14:36:19.945Z,30.56
2017-08-07T14:38:47.393Z,29.94
2017-08-07T14:41:14.871Z,30.92
2017-08-07T14:43:42.607Z,29.05
2017-08-07T14:46:10.052Z,30.63
2017-08-07T14:48:37.505Z,30.64
2017-08-07T14:51:04.974Z,32.51
2017-08-07T14:53:32.756Z,30.39
2017-08-07T14:56:00.205Z,30.59
2017-08-07T14:58:27.676Z,30.86
2017-08-07T15:00:55.501Z,30.69
2017-08-07T15:03:24.089Z,30.42
2017-08-07T15:05:51.556Z,30.11
2017-08-07T15:08:19.013Z,29.95
2017-08-07T15:10:46.470Z,29.02
2017-08-07T15:13:14.861Z,29.67
2017-08-07T15:15:43.501Z,30.61
2017-08-07T15:18:10.949Z,29.65
2017-08-07T15:20:38.416Z,30.33
2017-08-07T15:23:06.145Z,30.33
2017-08-07T15:25:34.648Z,30.17
2017-08-07T15:28:02.273Z,30.32
2017-08-07T15:30:30.624Z,29.80
2017-08-07T15:32:58.117Z,29.69
2017-08-07T15:35:25.567Z,29.64
2017-08-07T15:37:53.008Z,31.48
2017-08-07T15:40:20.493Z,30.99
2017-08-07T15:42:47.946Z,31.19
2017-08-07T15:45:16.046Z,30.74
2017-08-07T15:47:44.302Z,30.31
2017-08-07T15:50:11.782Z,30.95
2017-08-07T15:52:39.248Z,29.88
2017-08-07T15:55:07.704Z,30.55
2017-08-07T15:57:36.602Z,30.67
2017-08-07T16:00:04.208Z,30.99
2017-08-07T16:02:31.870Z,31.50
2017-08-07T16:04:59.317Z,30.05
2017-08-07T16:07:27.531Z,30.62
2017-08-07T16:09:55.000Z,30.40
2017-08-07T16:12:22.872Z,31.77
2017-08-07T16:14:50.321Z,32.69
2017-08-07T16:17:18.806Z,31.42
2017-08-07T16:19:47.061Z,31.71
2017-08-07T16:22:14.835Z,31.95
2017-08-07T16:24:42.306Z,31.40
2017-08-07T16:27:10.305Z,30.36
2017-08-07T16:29:49.449Z,30.83
2017-08-07T16:32:17.811Z,30.61
2017-08-07T16:34:45.257Z,31.29
2017-08-07T16:37:13.113Z,30.59
2017-08-07T16:39:40.790Z,31.33
2017-08-07T16:42:08.373Z,30.79
2017-08-07T16:44:36.984Z,30.91
2017-08-07T16:47:04.433Z,31.38
2017-08-07T16:49:31.921Z,31.10
2017-08-07T16:51:59.359Z,31.67
2017-08-07T16:54:27.395Z,31.29
2017-08-07T16:56:54.883Z,31.39
2017-08-07T16:59:22.401Z,32.77
2017-08-07T17:01:49.849Z,30.55
2017-08-07T17:04:19.134Z,31.62
2017-08-07T17:06:46.695Z,30.15
2017-08-07T17:09:14.176Z,31.61
2017-08-07T17:11:41.696Z,32.65
2017-08-07T17:14:09.146Z,31.02
2017-08-07T17:16:36.642Z,31.06
2017-08-07T17:19:04.164Z,30.96
2017-08-07T17:21:31.649Z,30.84
2017-08-07T17:23:59.128Z,30.64
2017-08-07T17:26:26.601Z,30.96
2017-08-07T17:28:55.622Z,31.31
2017-08-07T17:31:24.994Z,29.78
2017-08-07T17:33:54.297Z,30.04
2017-08-07T17:36:24.113Z,29.18
2017-08-07T17:38:57.048Z,28.81
2017-08-07T17:41:26.544Z,28.88
2017-08-07T17:43:55.650Z,28.76
2017-08-07T17:46:24.855Z,29.11
2017-08-07T17:48:54.166Z,29.12
2017-08-07T17:53:58.506Z,28.68
2017-08-07T17:56:25.961Z,27.26
2017-08-07T17:58:53.438Z,27.40
2017-08-07T18:01:20.910Z,26.33
2017-08-07T18:03:48.379Z,25.69
2017-08-07T18:06:15.890Z,25.68
2017-08-07T18:08:43.358Z,25.73
2017-08-07T18:11:10.825Z,25.54
2017-08-07T18:13:38.326Z,24.45
2017-08-07T18:16:05.777Z,24.14
2017-08-07T18:18:33.231Z,23.74
2017-08-07T18:21:00.702Z,23.26
2017-08-07T18:23:28.294Z,23.56
2017-08-07T18:25:55.743Z,22.97
2017-08-07T18:28:23.206Z,22.69
2017-08-07T18:30:50.682Z,22.85
2017-08-07T18:33:18.443Z,22.74
2017-08-07T18:35:45.884Z,22.77
2017-08-07T18:38:13.358Z,22.47
2017-08-07T18:40:40.820Z,22.58
2017-08-07T18:43:08.272Z,22.07
2017-08-07T18:45:36.000Z,22.00
2017-08-07T18:48:03.464Z,21.84
2017-08-07T18:50:30.973Z,21.77
2017-08-07T18:52:58.422Z,21.76
2017-08-07T18:55:25.901Z,21.74
2017-08-07T18:57:53.400Z,21.50
2017-08-07T19:00:21.473Z,21.56
2017-08-07T19:02:49.198Z,21.48
2017-08-07T19:05:16.809Z,21.41
2017-08-07T19:07:44.844Z,21.26
2017-08-07T19:10:12.309Z,21.29
2017-08-07T19:12:39.753Z,21.25
2017-08-07T19:15:07.213Z,21.08
2017-08-07T19:17:34.719Z,21.06
2017-08-07T19:20:02.161Z,21.16
2017-08-07T19:22:29.621Z,21.24
2017-08-07T19:24:57.269Z,21.26
2017-08-07T19:27:24.721Z,21.24
2017-08-07T19:29:52.189Z,21.22
2017-08-07T19:32:19.688Z,21.06
2017-08-07T19:34:47.135Z,21.04
2017-08-07T19:37:14.623Z,20.95
2017-08-07T19:39:42.077Z,20.93
2017-08-07T19:42:09.558Z,20.84
2017-08-07T19:44:37.012Z,20.86
2017-08-07T19:47:04.491Z,20.96
2017-08-07T19:49:31.947Z,20.89
2017-08-07T19:51:59.452Z,20.88
2017-08-07T19:54:27.549Z,20.86
2017-08-07T19:56:56.099Z,20.91
2017-08-07T19:59:23.545Z,20.80
2017-08-07T20:01:50.989Z,20.67
2017-08-07T20:04:18.828Z,20.62
2017-08-07T20:06:47.125Z,20.67
2017-08-07T20:09:14.888Z,20.52
2017-08-07T20:11:42.357Z,20.50
2017-08-07T20:14:09.805Z,20.31
2017-08-07T20:16:38.681Z,20.46
2017-08-07T20:19:07.158Z,20.46
2017-08-07T20:21:34.613Z,20.55
2017-08-07T20:24:02.095Z,20.43
2017-08-07T20:26:29.802Z,20.63
2017-08-07T20:28:58.461Z,20.41
2017-08-07T20:31:26.094Z,20.44
2017-08-07T20:33:53.824Z,20.40
2017-08-07T20:36:21.296Z,20.28
2017-08-07T20:38:48.742Z,20.16
2017-08-07T20:41:16.714Z,20.16
2017-08-07T20:43:45.241Z,20.07
2017-08-07T20:46:13.619Z,20.16
2017-08-07T20:48:41.346Z,20.16
2017-08-07T20:51:08.819Z,20.06
2017-08-07T20:53:37.267Z,19.86
2017-08-07T20:56:04.744Z,19.93
2017-08-07T20:58:32.304Z,19.93
2017-08-07T21:01:00.171Z,19.77
2017-08-07T21:03:27.613Z,19.90
2017-08-07T21:05:56.137Z,19.99
2017-08-07T21:08:25.270Z,19.83
2017-08-07T21:10:52.858Z,19.82
2017-08-07T21:13:20.401Z,19.84
2017-08-07T21:15:47.873Z,19.81
2017-08-07T21:18:15.471Z,19.90
2017-08-07T21:20:43.241Z,19.77
2017-08-07T21:23:10.717Z,19.69
2017-08-07T21:25:38.161Z,19.64
2017-08-07T21:28:05.633Z,19.52
2017-08-07T21:30:33.104Z,19.86
2017-08-07T21:33:01.455Z,19.61
2017-08-07T21:35:29.857Z,19.56
2017-08-07T21:37:58.045Z,19.68
2017-08-07T21:40:25.532Z,19.58
2017-08-07T21:42:53.453Z,19.60
2017-08-07T21:45:20.959Z,19.57
2017-08-07T21:47:48.485Z,19.50
2017-08-07T21:50:17.128Z,19.42
2017-08-07T21:52:45.176Z,19.45
2017-08-07T21:55:12.659Z,19.42
2017-08-07T21:57:40.527Z,19.40
2017-08-07T22:00:07.972Z,19.60
2017-08-07T22:02:35.443Z,19.46
2017-08-07T22:05:03.709Z,19.53
2017-08-07T22:07:31.163Z,19.55
2017-08-07T22:09:58.611Z,19.38
2017-08-07T22:12:26.649Z,19.27
2017-08-07T22:14:54.655Z,19.48
2017-08-07T22:17:22.524Z,19.32
2017-08-07T22:19:50.582Z,19.11
2017-08-07T22:22:18.029Z,19.27
2017-08-07T22:24:46.481Z,19.43
2017-08-07T22:27:14.780Z,19.35
2017-08-07T22:29:42.568Z,19.22
2017-08-07T22:32:10.033Z,18.90
2017-08-07T22:34:37.777Z,19.01
2017-08-07T22:37:05.225Z,19.25
2017-08-07T22:39:32.673Z,19.05
2017-08-07T22:42:00.465Z,18.82
2017-08-07T22:44:27.906Z,18.90
2017-08-07T22:46:55.352Z,18.69
2017-08-07T22:49:22.821Z,18.72
2017-08-07T22:51:50.272Z,18.91
2017-08-07T22:54:17.768Z,18.74
2017-08-07T22:56:45.370Z,18.79
2017-08-07T22:59:12.809Z,18.64
2017-08-07T23:01:40.254Z,18.56
2017-08-07T23:04:07.732Z,18.68
2017-08-07T23:06:35.212Z,18.46
2017-08-07T23:09:02.710Z,18.53
2017-08-07T23:11:30.153Z,18.63
2017-08-07T23:13:57.625Z,18.63
2017-08-07T23:16:25.074Z,18.57
2017-08-07T23:18:52.669Z,18.39
2017-08-07T23:21:20.105Z,18.62
2017-08-07T23:23:47.608Z,18.66
2017-08-07T23:26:15.176Z,18.54
2017-08-07T23:28:42.624Z,18.37
2017-08-07T23:31:10.067Z,18.35
2017-08-07T23:33:37.529Z,18.27
2017-08-07T23:36:04.968Z,18.39
2017-08-07T23:38:32.446Z,18.36
2017-08-07T23:40:59.901Z,18.42
2017-08-07T23:43:27.520Z,18.42
2017-08-07T23:45:54.989Z,18.76
2017-08-07T23:48:22.453Z,18.35
2017-08-07T23:50:49.924Z,18.26
2017-08-07T23:53:17.374Z,18.11
2017-08-07T23:55:44.823Z,18.17
2017-08-07T23:58:12.477Z,18.20
